ASPEN61 KBAB-KBAB
Flight info
| Callsign | ASPEN61 |
|---|---|
| Flight time | 0h 5m |
| Altitude | VFR |
| Route | CLOSED TRAFFIC |
| Aircraft | SR71/L-DOV/C |
Departure
| Time | 2026-04-19 06:39 |
|---|---|
| Airport | Beale Air Force Base (KBAB) |
Arrival
| Time | 2026-04-19 06:44 |
|---|---|
| Airport | Beale Air Force Base (KBAB) |
| Time | Latitude | Longitude | Altitude | Speed | Heading |
|---|---|---|---|---|---|
| 2026-04-19 06:31 | 39.14367 | -121.43259 | 113 ft | 0 kts | 162° |
| 2026-04-19 06:32 | 39.14291 | -121.43254 | 111 ft | 14 kts | 191° |
| 2026-04-19 06:32 | 39.14220 | -121.43244 | 110 ft | 7 kts | 170° |
| 2026-04-19 06:33 | 39.14163 | -121.43223 | 112 ft | 16 kts | 153° |
| 2026-04-19 06:33 | 39.14082 | -121.43239 | 112 ft | 10 kts | 230° |
| 2026-04-19 06:33 | 39.14087 | -121.43326 | 110 ft | 11 kts | 323° |
| 2026-04-19 06:33 | 39.14149 | -121.43357 | 112 ft | 27 kts | 342° |
| 2026-04-19 06:34 | 39.14451 | -121.43485 | 113 ft | 56 kts | 341° |
| 2026-04-19 06:34 | 39.14791 | -121.43634 | 114 ft | 47 kts | 341° |
| 2026-04-19 06:34 | 39.15073 | -121.43756 | 115 ft | 39 kts | 341° |
| 2026-04-19 06:34 | 39.15234 | -121.43843 | 114 ft | 15 kts | 313° |
| 2026-04-19 06:35 | 39.15255 | -121.43940 | 115 ft | 8 kts | 266° |
| 2026-04-19 06:35 | 39.15247 | -121.43989 | 115 ft | 7 kts | 254° |
| 2026-04-19 06:35 | 39.15215 | -121.44117 | 116 ft | 7 kts | 249° |
| 2026-04-19 06:35 | 39.15214 | -121.44122 | 115 ft | 0 kts | 249° |
| 2026-04-19 06:38 | 39.15192 | -121.44195 | 116 ft | 15 kts | 249° |
| 2026-04-19 06:39 | 39.15123 | -121.44304 | 114 ft | 5 kts | 177° |
| 2026-04-19 06:39 | 39.14598 | -121.44087 | 111 ft | 166 kts | 161° |
| 2026-04-19 06:39 | 39.13038 | -121.43369 | 508 ft | 309 kts | 159° |
| 2026-04-19 06:39 | 39.10549 | -121.42199 | 1324 ft | 439 kts | 159° |
| 2026-04-19 06:40 | 39.08099 | -121.40319 | 2648 ft | 376 kts | 129° |
| 2026-04-19 06:40 | 39.07324 | -121.37405 | 3241 ft | 335 kts | 86° |
| 2026-04-19 06:40 | 39.08035 | -121.34788 | 3863 ft | 305 kts | 49° |
| 2026-04-19 06:40 | 39.09961 | -121.33435 | 4198 ft | 323 kts | 4° |
| 2026-04-19 06:41 | 39.12219 | -121.33623 | 4306 ft | 336 kts | 352° |
| 2026-04-19 06:41 | 39.14692 | -121.34084 | 3769 ft | 382 kts | 351° |
| 2026-04-19 06:41 | 39.17424 | -121.34700 | 3579 ft | 409 kts | 349° |
| 2026-04-19 06:41 | 39.20228 | -121.35436 | 3866 ft | 406 kts | 347° |
| 2026-04-19 06:42 | 39.22856 | -121.36236 | 3968 ft | 376 kts | 341° |
| 2026-04-19 06:42 | 39.24967 | -121.37931 | 3896 ft | 347 kts | 304° |
| 2026-04-19 06:42 | 39.25507 | -121.40657 | 3962 ft | 293 kts | 253° |
| 2026-04-19 06:42 | 39.24565 | -121.42687 | 3461 ft | 256 kts | 208° |
| 2026-04-19 06:43 | 39.22999 | -121.43691 | 2728 ft | 249 kts | 204° |
| 2026-04-19 06:43 | 39.21398 | -121.44639 | 1938 ft | 257 kts | 203° |
| 2026-04-19 06:43 | 39.19807 | -121.45527 | 1561 ft | 238 kts | 194° |
| 2026-04-19 06:43 | 39.18254 | -121.45734 | 1136 ft | 215 kts | 160° |
| 2026-04-19 06:44 | 39.16863 | -121.45081 | 678 ft | 214 kts | 159° |
| 2026-04-19 06:44 | 39.15487 | -121.44489 | 274 ft | 202 kts | 160° |
| 2026-04-19 06:44 | 39.14218 | -121.43942 | 114 ft | 180 kts | 159° |
| 2026-04-19 06:44 | 39.13487 | -121.43605 | 104 ft | 40 kts | 160° |
| 2026-04-19 06:45 | 39.13419 | -121.43574 | 103 ft | 0 kts | 160° |